Terminal Aerodrome Forecast
Issued by NWS Wilmington, OH

Home | Current Version | Previous Version | Text Only | Print | Product List | Glossary On
Versions: 1 2 3 4 5 6 7 8 9 10 11 12 13 14 15 16 17 18 19 20 21
000
FTUS41 KILN 011700
TAFCMH
TAF
KCMH 011734Z 0118/0218 13004KT P6SM SCT035
      TEMPO 0118/0121 BKN035
     FM012300 VRB03KT P6SM SKC
     FM021300 15007KT P6SM SCT050 BKN110=

USA.gov is the U.S. government's official web portal to all federal, state and local government web resources and services.